createdAt,value
2022-10-23T00:00:20.060Z,11.20
2022-10-23T00:02:53.872Z,11.20
2022-10-23T00:05:22.546Z,11.20
2022-10-23T00:07:51.760Z,11.20
2022-10-23T00:10:20.614Z,11.30
2022-10-23T00:12:48.760Z,11.30
2022-10-23T00:15:19.403Z,11.30
2022-10-23T00:17:46.882Z,11.20
2022-10-23T00:20:16.114Z,11.20
2022-10-23T00:22:43.365Z,11.20
2022-10-23T00:25:11.271Z,11.20
2022-10-23T00:27:38.750Z,11.30
2022-10-23T00:30:06.754Z,11.30
2022-10-23T00:32:34.022Z,11.30
2022-10-23T00:35:01.372Z,11.30
2022-10-23T00:37:28.643Z,11.40
2022-10-23T00:39:56.228Z,11.50
2022-10-23T00:42:24.033Z,11.40
2022-10-23T00:44:51.288Z,11.40
2022-10-23T00:47:18.836Z,11.50
2022-10-23T00:49:46.143Z,11.50
2022-10-23T00:52:14.085Z,11.50
2022-10-23T00:54:43.225Z,11.60
2022-10-23T00:57:15.661Z,11.60
2022-10-23T00:59:43.563Z,11.60
2022-10-23T01:02:10.915Z,11.60
2022-10-23T01:04:38.605Z,11.70
2022-10-23T01:07:26.124Z,11.60
2022-10-23T01:10:07.433Z,11.60
2022-10-23T01:12:57.096Z,11.60
2022-10-23T01:15:39.481Z,11.50
2022-10-23T01:18:16.407Z,11.60
2022-10-23T01:21:05.545Z,11.40
2022-10-23T01:24:05.232Z,11.40
2022-10-23T01:26:46.453Z,11.40
2022-10-23T01:29:29.870Z,11.40
2022-10-23T01:32:09.630Z,11.40
2022-10-23T01:35:01.289Z,11.50
2022-10-23T01:37:39.934Z,11.40
2022-10-23T01:40:21.457Z,11.40
2022-10-23T01:42:54.615Z,11.40
2022-10-23T01:45:34.399Z,11.40
2022-10-23T01:48:03.583Z,11.40
2022-10-23T01:50:32.204Z,11.40
2022-10-23T01:53:04.893Z,11.40
2022-10-23T01:55:33.648Z,11.40
2022-10-23T01:58:07.314Z,11.30
2022-10-23T02:00:41.299Z,11.30
2022-10-23T02:03:11.243Z,11.40
2022-10-23T02:05:39.350Z,11.30
2022-10-23T02:08:07.064Z,11.40
2022-10-23T02:10:45.627Z,11.60
2022-10-23T02:13:23.477Z,11.50
2022-10-23T02:16:03.045Z,11.60
2022-10-23T02:19:12.690Z,11.70
2022-10-23T02:22:21.524Z,11.80
2022-10-23T02:24:51.559Z,11.80
2022-10-23T02:27:31.838Z,11.80
2022-10-23T02:30:06.681Z,11.70
2022-10-23T02:32:38.742Z,11.70
2022-10-23T02:35:06.830Z,11.70
2022-10-23T02:37:34.386Z,11.70
2022-10-23T02:40:05.045Z,11.70
2022-10-23T02:42:48.136Z,11.70
2022-10-23T02:45:30.991Z,11.70
2022-10-23T02:48:11.540Z,11.70
2022-10-23T02:50:53.469Z,11.70
2022-10-23T02:53:39.709Z,11.70
2022-10-23T02:56:23.020Z,11.60
2022-10-23T02:59:40.873Z,11.60
2022-10-23T03:02:28.607Z,11.70
2022-10-23T03:05:00.574Z,11.70
2022-10-23T03:07:28.141Z,11.80
2022-10-23T03:10:03.455Z,11.70
2022-10-23T03:12:32.165Z,11.80
2022-10-23T03:14:59.783Z,11.80
2022-10-23T03:17:27.128Z,11.80
2022-10-23T03:19:57.796Z,11.80
2022-10-23T03:22:25.292Z,11.90
2022-10-23T03:24:52.564Z,11.90
2022-10-23T03:27:19.856Z,11.90
2022-10-23T03:29:47.149Z,11.90
2022-10-23T03:32:17.379Z,11.90
2022-10-23T03:34:45.195Z,11.90
2022-10-23T03:37:12.455Z,12.00
2022-10-23T03:39:39.762Z,12.10
2022-10-23T03:42:07.069Z,12.10
2022-10-23T03:44:34.986Z,12.10
2022-10-23T03:47:03.163Z,12.10
2022-10-23T03:49:30.419Z,12.20
2022-10-23T03:52:04.305Z,12.20
2022-10-23T03:54:32.280Z,12.20
2022-10-23T03:56:59.850Z,12.10
2022-10-23T03:59:27.911Z,12.20
2022-10-23T04:01:55.653Z,12.20
2022-10-23T04:04:25.129Z,12.20
2022-10-23T04:06:52.400Z,12.20
2022-10-23T04:09:20.693Z,12.20
2022-10-23T04:11:48.014Z,12.20
2022-10-23T04:14:15.269Z,12.20
2022-10-23T04:16:42.648Z,12.20
2022-10-23T04:19:10.149Z,12.20
2022-10-23T04:21:37.539Z,12.20
2022-10-23T04:24:05.266Z,12.20
2022-10-23T04:26:32.929Z,12.20
2022-10-23T04:29:00.498Z,12.20
2022-10-23T04:31:29.777Z,12.30
2022-10-23T04:33:57.235Z,12.30
2022-10-23T04:36:31.699Z,12.40
2022-10-23T04:39:08.318Z,12.40
2022-10-23T04:41:38.886Z,12.50
2022-10-23T04:44:06.742Z,12.50
2022-10-23T04:46:37.748Z,12.50
2022-10-23T04:49:05.620Z,12.50
2022-10-23T04:52:11.270Z,12.60
2022-10-23T04:54:46.565Z,12.50
2022-10-23T04:57:32.652Z,12.50
2022-10-23T05:00:08.517Z,12.60
2022-10-23T05:02:42.589Z,12.60
2022-10-23T05:05:10.785Z,12.60
2022-10-23T05:07:55.880Z,12.60
2022-10-23T05:10:38.455Z,12.60
2022-10-23T05:13:19.647Z,12.60
2022-10-23T05:15:51.823Z,12.60
2022-10-23T05:18:45.787Z,12.60
2022-10-23T05:21:26.970Z,12.60
2022-10-23T05:23:54.803Z,12.60
2022-10-23T05:26:22.944Z,12.60
2022-10-23T05:28:52.829Z,12.70
2022-10-23T05:31:22.357Z,12.80
2022-10-23T05:33:52.544Z,12.70
2022-10-23T05:36:23.659Z,12.60
2022-10-23T05:38:57.166Z,12.60
2022-10-23T05:41:24.488Z,12.60
2022-10-23T05:43:51.828Z,12.60
2022-10-23T05:46:51.444Z,12.50
2022-10-23T05:49:41.835Z,12.50
2022-10-23T05:52:27.776Z,12.50
2022-10-23T05:55:13.521Z,12.50
2022-10-23T05:57:44.150Z,12.40
2022-10-23T06:00:14.148Z,12.40
2022-10-23T06:02:41.449Z,12.40
2022-10-23T06:05:31.428Z,12.50
2022-10-23T06:08:18.892Z,12.40
2022-10-23T06:10:48.619Z,12.50
2022-10-23T06:13:16.014Z,12.40
2022-10-23T06:15:43.744Z,12.40
2022-10-23T06:18:18.788Z,12.50
2022-10-23T06:20:53.899Z,12.50
2022-10-23T06:23:25.498Z,12.50
2022-10-23T06:26:13.535Z,12.50
2022-10-23T06:29:06.035Z,12.40
2022-10-23T06:31:33.535Z,12.50
2022-10-23T06:34:02.443Z,12.50
2022-10-23T06:36:31.443Z,12.60
2022-10-23T06:39:10.201Z,12.50
2022-10-23T06:41:56.158Z,12.60
2022-10-23T06:44:56.341Z,12.60
2022-10-23T06:47:42.289Z,12.70
2022-10-23T06:50:37.734Z,12.70
2022-10-23T06:53:09.628Z,12.80
2022-10-23T06:55:40.194Z,12.90
2022-10-23T06:58:10.686Z,12.90
2022-10-23T07:00:53.369Z,12.90
2022-10-23T07:03:20.769Z,12.90
2022-10-23T07:05:48.917Z,13.00
2022-10-23T07:08:16.805Z,13.00
2022-10-23T07:10:47.906Z,13.00
2022-10-23T07:13:15.208Z,13.10
2022-10-23T07:16:12.882Z,13.20
2022-10-23T07:18:40.828Z,13.30
2022-10-23T07:21:37.381Z,13.30
2022-10-23T07:24:25.147Z,13.30
2022-10-23T07:26:55.496Z,13.40
2022-10-23T07:29:24.989Z,13.40
2022-10-23T07:31:52.371Z,13.50
2022-10-23T07:34:38.498Z,13.60
2022-10-23T07:37:34.904Z,13.70
2022-10-23T07:40:05.928Z,13.70
2022-10-23T07:42:38.852Z,13.80
2022-10-23T07:45:07.546Z,13.90
2022-10-23T07:47:36.147Z,14.00
2022-10-23T07:50:04.280Z,14.10
2022-10-23T07:52:35.045Z,14.10
2022-10-23T07:55:12.826Z,14.20
2022-10-23T07:57:53.298Z,14.40
2022-10-23T08:00:28.668Z,14.50
2022-10-23T08:03:12.748Z,14.70
2022-10-23T08:05:40.323Z,15.10
2022-10-23T08:08:07.696Z,15.40
2022-10-23T08:10:36.951Z,15.80
2022-10-23T08:13:06.096Z,16.50
2022-10-23T08:15:53.044Z,17.10
2022-10-23T08:18:48.214Z,17.70
2022-10-23T08:21:17.058Z,17.70
2022-10-23T08:23:45.347Z,18.00
2022-10-23T08:26:13.172Z,18.30
2022-10-23T08:28:41.944Z,18.40
2022-10-23T08:31:13.065Z,18.10
2022-10-23T08:33:41.773Z,18.00
2022-10-23T08:36:24.105Z,18.00
2022-10-23T08:38:55.915Z,17.60
2022-10-23T08:41:39.148Z,17.10
2022-10-23T08:44:30.956Z,16.90
2022-10-23T08:47:42.624Z,16.80
2022-10-23T08:50:32.337Z,16.60
2022-10-23T08:53:03.012Z,16.50
2022-10-23T08:55:35.204Z,16.40
2022-10-23T08:58:31.822Z,16.60
2022-10-23T09:00:59.328Z,16.80
2022-10-23T09:03:27.548Z,17.10
2022-10-23T09:06:08.807Z,17.40
2022-10-23T09:08:59.336Z,17.20
2022-10-23T09:11:29.830Z,17.20
2022-10-23T09:14:27.763Z,17.30
2022-10-23T09:17:06.901Z,17.10
2022-10-23T09:19:34.239Z,17.00
2022-10-23T09:22:01.724Z,17.20
2022-10-23T09:24:33.370Z,17.10
2022-10-23T09:27:00.941Z,17.30
2022-10-23T09:29:32.769Z,17.40
2022-10-23T09:32:03.144Z,17.30
2022-10-23T09:34:32.576Z,17.40
2022-10-23T09:37:03.014Z,17.60
2022-10-23T09:39:34.086Z,17.90
2022-10-23T09:42:20.756Z,18.00
2022-10-23T09:44:51.147Z,18.10
2022-10-23T09:47:22.572Z,18.20
2022-10-23T09:49:55.625Z,18.30
2022-10-23T09:52:36.739Z,18.40
2022-10-23T09:55:20.501Z,18.60
2022-10-23T09:57:48.117Z,18.20
2022-10-23T10:00:23.383Z,18.20
2022-10-23T10:03:04.193Z,18.30
2022-10-23T10:05:42.271Z,18.20
2022-10-23T10:08:14.989Z,18.10
2022-10-23T10:11:01.294Z,18.00
2022-10-23T10:13:34.074Z,18.00
2022-10-23T10:19:36.047Z,18.10
2022-10-23T10:22:25.947Z,18.30
2022-10-23T10:25:16.653Z,18.40
2022-10-23T10:28:07.456Z,18.60
2022-10-23T10:30:56.878Z,18.60
2022-10-23T10:33:42.761Z,18.70
2022-10-23T10:36:29.000Z,18.50
2022-10-23T10:39:05.442Z,18.60
2022-10-23T10:41:52.568Z,18.60
2022-10-23T10:44:36.180Z,18.60
2022-10-23T10:47:21.298Z,18.50
2022-10-23T10:50:07.476Z,18.50
2022-10-23T10:52:55.803Z,18.40
2022-10-23T10:55:38.311Z,18.30
2022-10-23T10:58:20.157Z,18.40
2022-10-23T11:00:53.119Z,18.30
2022-10-23T11:03:45.854Z,18.10
2022-10-23T11:06:18.602Z,18.10
2022-10-23T11:08:57.289Z,18.10
2022-10-23T11:11:43.528Z,18.20
2022-10-23T11:14:19.589Z,18.20
2022-10-23T11:16:51.891Z,18.40
2022-10-23T11:19:34.327Z,18.50
2022-10-23T11:22:27.845Z,18.60
2022-10-23T11:25:23.051Z,18.60
2022-10-23T11:28:03.686Z,18.50
2022-10-23T11:30:55.702Z,18.50
2022-10-23T11:33:28.763Z,18.50
2022-10-23T11:36:00.329Z,18.40
2022-10-23T11:38:35.038Z,18.50
2022-10-23T11:41:04.869Z,18.70
2022-10-23T11:43:35.455Z,18.80
2022-10-23T11:46:29.609Z,18.80
2022-10-23T11:48:57.607Z,19.00
2022-10-23T11:52:01.164Z,19.10
2022-10-23T11:54:28.936Z,19.20
2022-10-23T11:57:10.927Z,19.40
2022-10-23T11:59:50.159Z,19.50
2022-10-23T12:02:31.731Z,19.50
2022-10-23T12:05:04.621Z,19.60
2022-10-23T12:07:38.173Z,19.50
2022-10-23T12:10:19.117Z,19.40
2022-10-23T12:12:56.608Z,19.50
2022-10-23T12:15:25.923Z,19.50
2022-10-23T12:17:56.270Z,19.60
2022-10-23T12:20:37.786Z,19.60
2022-10-23T12:23:16.395Z,19.60
2022-10-23T12:25:43.646Z,19.60
2022-10-23T12:28:22.987Z,19.60
2022-10-23T12:31:14.477Z,19.30
2022-10-23T12:33:52.646Z,19.40
2022-10-23T12:36:28.783Z,19.40
2022-10-23T12:38:58.527Z,19.40
2022-10-23T12:41:31.422Z,19.40
2022-10-23T12:44:04.258Z,19.50
2022-10-23T12:46:39.180Z,19.60
2022-10-23T12:49:19.526Z,19.70
2022-10-23T12:52:17.540Z,19.50
2022-10-23T12:54:44.834Z,19.40
2022-10-23T12:57:23.955Z,19.40
2022-10-23T12:59:57.432Z,19.30
2022-10-23T13:02:29.756Z,19.20
2022-10-23T13:05:00.861Z,19.20
2022-10-23T13:07:31.377Z,19.20
2022-10-23T13:10:02.610Z,19.30
2022-10-23T13:12:35.442Z,19.20
2022-10-23T13:15:10.770Z,19.10
2022-10-23T13:17:44.116Z,19.20
2022-10-23T13:20:17.555Z,19.10
2022-10-23T13:22:47.146Z,19.00
2022-10-23T13:25:32.744Z,19.00
2022-10-23T13:28:08.518Z,18.90
2022-10-23T13:30:39.013Z,18.90
2022-10-23T13:33:21.147Z,18.80
2022-10-23T13:36:08.870Z,18.90
2022-10-23T13:38:40.632Z,18.80
2022-10-23T13:41:18.205Z,18.80
2022-10-23T13:43:47.367Z,18.90
2022-10-23T13:46:20.282Z,18.80
2022-10-23T13:48:47.841Z,18.80
2022-10-23T13:51:27.514Z,18.90
2022-10-23T13:53:57.279Z,18.80
2022-10-23T13:56:26.785Z,18.80
2022-10-23T13:58:54.118Z,18.80
2022-10-23T14:01:28.075Z,18.70
2022-10-23T14:03:56.905Z,18.80
2022-10-23T14:06:24.432Z,18.80
2022-10-23T14:08:52.167Z,18.70
2022-10-23T14:11:20.968Z,18.70
2022-10-23T14:13:49.187Z,18.70
2022-10-23T14:16:18.923Z,18.60
2022-10-23T14:18:46.530Z,18.70
2022-10-23T14:21:16.940Z,18.50
2022-10-23T14:23:44.230Z,18.50
2022-10-23T14:26:13.886Z,18.50
2022-10-23T14:28:42.132Z,18.50
2022-10-23T14:31:12.682Z,18.40
2022-10-23T14:33:40.358Z,18.40
2022-10-23T14:36:08.444Z,18.40
2022-10-23T14:38:36.409Z,18.40
2022-10-23T14:41:09.474Z,18.30
2022-10-23T14:43:36.868Z,18.30
2022-10-23T14:46:18.906Z,18.30
2022-10-23T14:48:49.418Z,18.20
2022-10-23T14:51:21.502Z,18.10
2022-10-23T14:53:56.393Z,18.10
2022-10-23T14:56:26.356Z,18.10
2022-10-23T14:58:54.199Z,18.00
2022-10-23T15:01:21.632Z,18.00
2022-10-23T15:03:54.631Z,17.90
2022-10-23T15:06:21.864Z,17.90
2022-10-23T15:08:56.580Z,17.80
2022-10-23T15:11:24.640Z,17.70
2022-10-23T15:13:52.867Z,17.70
2022-10-23T15:16:21.332Z,17.70
2022-10-23T15:18:48.995Z,17.70
2022-10-23T15:21:16.343Z,17.70
2022-10-23T15:23:45.710Z,17.60
2022-10-23T15:26:20.613Z,17.60
2022-10-23T15:28:53.184Z,17.60
2022-10-23T15:31:40.934Z,17.60
2022-10-23T15:34:10.659Z,17.50
2022-10-23T15:36:38.766Z,17.50
2022-10-23T15:39:08.928Z,17.50
2022-10-23T15:41:38.068Z,17.40
2022-10-23T15:44:08.047Z,17.20
2022-10-23T15:46:36.167Z,17.20
2022-10-23T15:49:04.013Z,17.10
2022-10-23T15:51:34.662Z,17.10
2022-10-23T15:54:01.978Z,17.00
2022-10-23T15:56:29.277Z,17.00
2022-10-23T15:58:56.613Z,17.00
2022-10-23T16:01:23.976Z,16.90
2022-10-23T16:03:51.362Z,16.90
2022-10-23T16:06:19.815Z,16.90
2022-10-23T16:08:47.457Z,17.00
2022-10-23T16:11:29.928Z,16.90
2022-10-23T16:13:58.709Z,16.90
2022-10-23T16:16:27.787Z,16.80
2022-10-23T16:18:55.811Z,16.70
2022-10-23T16:21:25.890Z,16.70
2022-10-23T16:23:55.601Z,16.60
2022-10-23T16:26:23.817Z,16.60
2022-10-23T16:29:02.268Z,16.50
2022-10-23T16:31:30.053Z,16.50
2022-10-23T16:34:02.173Z,16.50
2022-10-23T16:36:31.291Z,16.50
2022-10-23T16:39:27.099Z,16.40
2022-10-23T16:42:13.038Z,16.20
2022-10-23T16:44:58.892Z,16.00
2022-10-23T16:47:26.197Z,15.90
2022-10-23T16:49:53.450Z,15.90
2022-10-23T16:52:20.718Z,15.90
2022-10-23T16:54:48.068Z,15.80
2022-10-23T16:57:15.349Z,15.80
2022-10-23T16:59:42.746Z,15.80
2022-10-23T17:02:13.213Z,15.90
2022-10-23T17:04:40.673Z,15.90
2022-10-23T17:07:08.046Z,15.90
2022-10-23T17:09:35.772Z,16.10
2022-10-23T17:12:03.257Z,16.00
2022-10-23T17:14:30.586Z,16.00
2022-10-23T17:17:01.466Z,15.90
2022-10-23T17:19:44.516Z,15.90
2022-10-23T17:22:13.627Z,15.90
2022-10-23T17:24:42.069Z,16.10
2022-10-23T17:27:09.560Z,15.90
2022-10-23T17:29:36.827Z,15.90
2022-10-23T17:32:04.378Z,16.00
2022-10-23T17:34:31.753Z,16.20
2022-10-23T17:36:59.063Z,16.20
2022-10-23T17:39:29.204Z,16.20
2022-10-23T17:41:57.085Z,16.20
2022-10-23T17:44:24.511Z,16.20
2022-10-23T17:46:53.709Z,16.20
2022-10-23T17:49:22.679Z,16.30
2022-10-23T17:51:55.011Z,16.20
2022-10-23T17:54:22.675Z,16.20
2022-10-23T17:56:49.919Z,16.10
2022-10-23T17:59:20.844Z,16.00
2022-10-23T18:01:49.160Z,16.00
2022-10-23T18:04:19.422Z,16.00
2022-10-23T18:06:52.687Z,16.00
2022-10-23T18:09:21.983Z,16.10
2022-10-23T18:11:49.603Z,16.10
2022-10-23T18:14:18.642Z,16.10
2022-10-23T18:16:46.410Z,16.00
2022-10-23T18:19:15.660Z,16.00
2022-10-23T18:21:43.069Z,16.00
2022-10-23T18:24:11.348Z,16.00
2022-10-23T18:26:41.204Z,16.00
2022-10-23T18:29:09.331Z,16.00
2022-10-23T18:31:37.780Z,16.00
2022-10-23T18:34:23.295Z,16.00
2022-10-23T18:36:52.119Z,15.90
2022-10-23T18:39:23.836Z,15.90
2022-10-23T18:41:53.916Z,15.90
2022-10-23T18:44:22.490Z,15.90
2022-10-23T18:46:50.919Z,15.90
2022-10-23T18:49:19.348Z,15.90
2022-10-23T18:51:47.413Z,16.00
2022-10-23T18:54:17.075Z,16.00
2022-10-23T18:56:44.444Z,16.10
2022-10-23T18:59:15.046Z,16.20
2022-10-23T19:01:43.440Z,16.10
2022-10-23T19:04:12.596Z,16.20
2022-10-23T19:06:40.273Z,16.20
2022-10-23T19:09:09.128Z,16.20
2022-10-23T19:11:37.281Z,16.00
2022-10-23T19:14:05.694Z,16.00
2022-10-23T19:16:44.259Z,15.90
2022-10-23T19:19:17.663Z,15.70
2022-10-23T19:21:46.175Z,15.70
2022-10-23T19:24:29.480Z,15.60
2022-10-23T19:26:59.803Z,15.40
2022-10-23T19:29:28.250Z,15.60
2022-10-23T19:31:55.933Z,15.50
2022-10-23T19:34:24.744Z,15.60
2022-10-23T19:36:54.540Z,15.60
2022-10-23T19:39:22.746Z,15.60
2022-10-23T19:41:51.627Z,15.60
2022-10-23T19:44:19.978Z,15.50
2022-10-23T19:46:48.354Z,15.50
2022-10-23T19:49:16.075Z,15.40
2022-10-23T19:51:50.995Z,15.50
2022-10-23T19:54:20.221Z,15.50
2022-10-23T19:56:48.342Z,15.50
2022-10-23T19:59:15.764Z,15.60
2022-10-23T20:01:46.333Z,15.70
2022-10-23T20:04:17.757Z,15.70
2022-10-23T20:06:45.035Z,15.90
2022-10-23T20:09:12.549Z,15.90
2022-10-23T20:11:40.588Z,16.10
2022-10-23T20:14:08.164Z,16.20
2022-10-23T20:16:37.707Z,16.30
2022-10-23T20:19:08.368Z,16.30
2022-10-23T20:21:39.203Z,16.30
2022-10-23T20:24:07.658Z,16.20
2022-10-23T20:26:35.108Z,16.40
2022-10-23T20:29:02.411Z,16.50
2022-10-23T20:31:29.705Z,16.50
2022-10-23T20:33:57.200Z,16.40
2022-10-23T20:36:30.313Z,16.30
2022-10-23T20:38:59.562Z,16.30
2022-10-23T20:41:28.823Z,16.10
2022-10-23T20:43:56.332Z,16.00
2022-10-23T20:46:23.963Z,16.00
2022-10-23T20:48:52.157Z,15.90
2022-10-23T20:51:22.006Z,15.80
2022-10-23T20:53:50.716Z,15.70
2022-10-23T20:56:23.144Z,15.50
2022-10-23T20:58:50.716Z,15.50
2022-10-23T21:01:18.817Z,15.50
2022-10-23T21:03:51.249Z,15.40
2022-10-23T21:06:19.262Z,15.40
2022-10-23T21:08:46.819Z,15.40
2022-10-23T21:11:16.838Z,15.40
2022-10-23T21:13:44.597Z,15.30
2022-10-23T21:16:16.664Z,15.20
2022-10-23T21:18:46.675Z,15.10
2022-10-23T21:21:17.383Z,14.90
2022-10-23T21:23:45.763Z,14.90
2022-10-23T21:26:14.129Z,14.80
2022-10-23T21:28:50.774Z,14.70
2022-10-23T21:31:28.541Z,14.80
2022-10-23T21:33:56.036Z,14.80
2022-10-23T21:36:24.105Z,14.70
2022-10-23T21:38:54.575Z,14.70
2022-10-23T21:41:25.300Z,14.60
2022-10-23T21:43:57.441Z,14.80
2022-10-23T21:46:25.916Z,14.80
2022-10-23T21:48:53.616Z,14.80
2022-10-23T21:51:29.335Z,14.70
2022-10-23T21:53:57.201Z,14.70
2022-10-23T21:56:26.551Z,14.80
2022-10-23T21:58:54.276Z,14.90
2022-10-23T22:01:22.265Z,14.80
2022-10-23T22:03:49.913Z,14.80
2022-10-23T22:06:20.863Z,14.70
2022-10-23T22:08:48.746Z,14.70
2022-10-23T22:11:16.580Z,14.80
2022-10-23T22:13:44.727Z,14.70
2022-10-23T22:16:13.687Z,14.70
2022-10-23T22:18:41.517Z,14.80
2022-10-23T22:21:17.840Z,14.80
2022-10-23T22:23:45.416Z,14.70
2022-10-23T22:26:28.116Z,14.80
2022-10-23T22:28:58.079Z,14.60
2022-10-23T22:31:27.630Z,14.50
2022-10-23T22:33:56.160Z,14.50
2022-10-23T22:36:23.908Z,14.50
2022-10-23T22:38:51.783Z,14.40
2022-10-23T22:41:19.744Z,14.40
2022-10-23T22:43:47.179Z,14.30
2022-10-23T22:46:19.529Z,14.30
2022-10-23T22:48:46.866Z,14.30
2022-10-23T22:51:19.262Z,14.30
2022-10-23T22:53:46.730Z,14.30
2022-10-23T22:56:20.055Z,14.30
2022-10-23T22:58:47.876Z,14.40
2022-10-23T23:01:25.707Z,14.30
2022-10-23T23:03:53.873Z,14.40
2022-10-23T23:06:21.598Z,14.30
2022-10-23T23:08:50.297Z,14.30
2022-10-23T23:11:19.792Z,14.30
2022-10-23T23:13:47.969Z,14.20
2022-10-23T23:16:29.846Z,14.20
2022-10-23T23:19:02.184Z,14.30
2022-10-23T23:21:30.410Z,14.30
2022-10-23T23:23:58.142Z,14.30
2022-10-23T23:26:25.473Z,14.60
2022-10-23T23:28:54.328Z,14.60
2022-10-23T23:31:26.273Z,14.50
2022-10-23T23:33:55.654Z,14.50
2022-10-23T23:36:25.844Z,14.50
2022-10-23T23:38:53.344Z,14.60
2022-10-23T23:41:22.209Z,14.70
2022-10-23T23:43:49.815Z,14.60
2022-10-23T23:46:17.992Z,14.50
2022-10-23T23:48:48.369Z,14.60
2022-10-23T23:51:18.343Z,14.60
2022-10-23T23:53:45.704Z,14.60
2022-10-23T23:56:13.726Z,14.50
2022-10-23T23:58:41.083Z,14.70
